Time;durP1;ratioP1;P1;durP2;ratioP2;P2;SDS_P1;SDS_P2;PMS_P1;PMS_P2;Temp;Humidity;BMP_temperature;BMP_pressure;BME280_temperature;BME280_humidity;BME280_pressure;Samples;Min_cycle;Max_cycle;Signal;HPM_P1;HPM_P2
2021/10/15 00:01:21;;;;;;;8.03;2.17;;;6.70;99.90;;;;;;5012741;28;20075;-83
2021/10/15 00:03:47;;;;;;;5.13;2.43;;;6.60;99.90;;;;;;5005867;28;20022;-82
2021/10/15 00:06:13;;;;;;;4.82;2.03;;;6.60;99.90;;;;;;5004409;28;20057;-82
2021/10/15 00:08:38;;;;;;;7.10;1.97;;;6.60;99.90;;;;;;5001618;28;20022;-82
2021/10/15 00:11:04;;;;;;;5.43;2.40;;;6.60;99.90;;;;;;5006779;28;20105;-82
2021/10/15 00:13:29;;;;;;;4.60;2.30;;;6.60;99.90;;;;;;5002895;28;20100;-82
2021/10/15 00:15:55;;;;;;;4.70;2.20;;;6.60;99.90;;;;;;5005953;28;20152;-82
2021/10/15 00:18:20;;;;;;;6.10;2.13;;;6.90;99.90;;;;;;5009193;28;20399;-82
2021/10/15 00:20:46;;;;;;;5.70;2.30;;;6.70;99.90;;;;;;4989216;28;20044;-82
2021/10/15 00:23:12;;;;;;;3.77;1.97;;;6.50;99.90;;;;;;5003879;28;20057;-83
2021/10/15 00:25:38;;;;;;;4.73;2.20;;;6.50;99.90;;;;;;5004825;28;20022;-82
2021/10/15 00:28:03;;;;;;;4.33;2.47;;;6.50;99.90;;;;;;4996259;28;20026;-82
2021/10/15 00:30:29;;;;;;;5.67;2.30;;;6.50;99.90;;;;;;5002769;28;20029;-82
2021/10/15 00:32:55;;;;;;;4.83;2.63;;;6.50;99.90;;;;;;5009787;28;20064;-82
2021/10/15 00:35:20;;;;;;;4.60;2.47;;;6.50;99.90;;;;;;5009634;28;20029;-82
2021/10/15 00:37:48;;;;;;;4.20;2.20;;;6.50;99.90;;;;;;5000710;28;20061;-83
2021/10/15 00:40:15;;;;;;;5.47;2.80;;;6.40;99.90;;;;;;5006513;28;20052;-82
2021/10/15 00:42:40;;;;;;;7.07;2.20;;;6.40;99.90;;;;;;5007140;28;20014;-82
2021/10/15 00:45:07;;;;;;;4.67;2.33;;;6.30;99.90;;;;;;5003772;28;20069;-82
2021/10/15 00:47:32;;;;;;;6.63;2.97;;;6.30;99.90;;;;;;5006516;28;20029;-82
2021/10/15 00:49:58;;;;;;;5.57;2.53;;;6.30;99.90;;;;;;5006054;28;20030;-82
2021/10/15 00:52:24;;;;;;;4.37;2.00;;;6.30;99.90;;;;;;5007658;28;20036;-83
2021/10/15 00:54:49;;;;;;;6.00;2.10;;;6.30;99.90;;;;;;5005331;28;20030;-82
2021/10/15 00:57:17;;;;;;;4.53;2.50;;;6.20;99.90;;;;;;5004171;28;20022;-82
2021/10/15 00:59:42;;;;;;;5.47;2.60;;;6.20;99.90;;;;;;5009673;28;20329;-82
2021/10/15 01:02:08;;;;;;;5.93;2.20;;;5.80;99.90;;;;;;5004525;28;20072;-82
2021/10/15 01:04:35;;;;;;;5.13;2.27;;;6.20;99.90;;;;;;5003185;28;20038;-82
2021/10/15 01:07:01;;;;;;;4.93;2.30;;;6.10;99.90;;;;;;5007663;28;20061;-82
2021/10/15 01:09:27;;;;;;;3.90;1.90;;;6.10;99.90;;;;;;5009078;28;20173;-82
2021/10/15 01:11:55;;;;;;;4.43;2.40;;;6.10;99.90;;;;;;5007337;28;20497;-82
2021/10/15 01:14:21;;;;;;;10.33;2.40;;;6.10;99.90;;;;;;5007032;28;20447;-82
2021/10/15 01:16:47;;;;;;;4.00;2.40;;;6.10;99.90;;;;;;5008606;28;20031;-82
2021/10/15 01:19:13;;;;;;;3.43;1.90;;;6.10;99.90;;;;;;5006842;28;20416;-82
2021/10/15 01:21:39;;;;;;;5.60;2.47;;;5.80;99.90;;;;;;5002306;28;20022;-82
2021/10/15 01:24:04;;;;;;;5.47;2.30;;;6.00;99.90;;;;;;5010456;28;20052;-82
2021/10/15 01:26:30;;;;;;;5.37;2.63;;;6.00;99.90;;;;;;5007714;28;20049;-82
2021/10/15 01:28:56;;;;;;;6.17;2.70;;;6.00;99.90;;;;;;5007449;28;20030;-82
2021/10/15 01:31:23;;;;;;;5.13;2.83;;;6.00;99.90;;;;;;5007209;28;20474;-82
2021/10/15 01:33:49;;;;;;;5.53;2.50;;;6.00;99.90;;;;;;5013717;28;20494;-82
2021/10/15 01:36:14;;;;;;;3.87;1.80;;;6.00;99.90;;;;;;5013108;28;20037;-82
2021/10/15 01:38:40;;;;;;;4.33;2.00;;;5.90;99.90;;;;;;5007232;28;20021;-82
2021/10/15 01:41:06;;;;;;;4.87;2.23;;;6.00;99.90;;;;;;4998438;28;20479;-82
2021/10/15 01:43:31;;;;;;;6.33;2.30;;;5.90;99.90;;;;;;5009810;28;20034;-82
2021/10/15 01:45:58;;;;;;;5.67;2.33;;;5.50;99.90;;;;;;5007130;28;20034;-82
2021/10/15 01:48:24;;;;;;;5.03;2.20;;;5.90;99.90;;;;;;5003027;28;20167;-82
2021/10/15 01:50:51;;;;;;;4.30;2.10;;;5.90;99.90;;;;;;5008371;28;20109;-82
2021/10/15 01:53:17;;;;;;;5.13;2.60;;;5.90;99.90;;;;;;5010116;28;20022;-82
2021/10/15 01:55:43;;;;;;;5.30;2.77;;;5.90;99.90;;;;;;5010130;28;20040;-82
2021/10/15 01:58:08;;;;;;;5.33;2.13;;;5.90;99.90;;;;;;5021957;28;20053;-82
2021/10/15 02:00:35;;;;;;;4.37;2.23;;;5.90;99.90;;;;;;5001626;28;20030;-82
2021/10/15 02:03:00;;;;;;;6.70;2.20;;;5.90;99.90;;;;;;5005495;28;20030;-82
2021/10/15 02:05:27;;;;;;;5.37;2.30;;;5.80;99.90;;;;;;5004587;28;20024;-82
2021/10/15 02:07:52;;;;;;;4.53;1.93;;;5.80;99.90;;;;;;5007747;28;20029;-83
2021/10/15 02:10:20;;;;;;;5.67;2.37;;;5.80;99.90;;;;;;5010287;28;20028;-82
2021/10/15 02:12:46;;;;;;;4.90;2.43;;;5.80;99.90;;;;;;5008455;28;20050;-82
2021/10/15 02:15:13;;;;;;;4.80;2.30;;;5.80;99.90;;;;;;5009180;28;20057;-82
2021/10/15 02:17:39;;;;;;;4.97;2.23;;;5.70;99.90;;;;;;5008722;28;20439;-82
2021/10/15 02:20:12;;;;;;;5.27;2.50;;;6.80;99.90;;;;;;5009243;28;20085;-82
2021/10/15 02:22:43;;;;;;;5.00;2.10;;;5.70;99.90;;;;;;4994545;28;20478;-82
2021/10/15 02:25:10;;;;;;;4.97;2.43;;;5.70;99.90;;;;;;5005671;28;20015;-82
2021/10/15 02:27:36;;;;;;;3.97;2.13;;;5.60;99.90;;;;;;4993143;28;20022;-82
2021/10/15 02:30:05;;;;;;;6.63;2.53;;;5.60;99.90;;;;;;5012051;28;20601;-82
2021/10/15 02:32:30;;;;;;;4.50;2.20;;;5.50;99.90;;;;;;5011329;28;20030;-82
2021/10/15 02:34:56;;;;;;;4.37;2.07;;;5.50;99.90;;;;;;5010425;28;20022;-82
2021/10/15 02:37:22;;;;;;;4.23;2.27;;;5.50;99.90;;;;;;5008713;28;20490;-82
2021/10/15 02:39:47;;;;;;;5.70;2.30;;;5.50;99.90;;;;;;5009022;28;20036;-83
2021/10/15 02:42:13;;;;;;;4.63;2.20;;;5.60;99.90;;;;;;5012207;28;20355;-82
2021/10/15 02:44:39;;;;;;;5.63;2.33;;;5.50;99.90;;;;;;5018445;28;20081;-82
2021/10/15 02:47:04;;;;;;;4.77;2.20;;;5.50;99.90;;;;;;5018637;28;20033;-82
2021/10/15 02:49:30;;;;;;;6.30;2.43;;;5.40;99.90;;;;;;5023380;28;20026;-81
2021/10/15 02:51:55;;;;;;;6.67;1.80;;;5.40;99.90;;;;;;5021923;28;20041;-82
2021/10/15 02:54:21;;;;;;;4.63;2.30;;;5.40;99.90;;;;;;5004286;28;20493;-82
2021/10/15 02:56:47;;;;;;;6.80;2.43;;;5.40;99.90;;;;;;5004070;28;20208;-82
2021/10/15 02:59:12;;;;;;;4.87;2.30;;;5.40;99.90;;;;;;5004678;28;20075;-82
2021/10/15 03:01:38;;;;;;;4.30;2.00;;;5.40;99.90;;;;;;4999204;28;20037;-82
2021/10/15 03:04:03;;;;;;;5.07;2.40;;;5.40;99.90;;;;;;5010354;28;20026;-82
2021/10/15 03:06:29;;;;;;;5.13;2.23;;;5.40;99.90;;;;;;5008769;28;20529;-82
2021/10/15 03:08:55;;;;;;;4.67;2.33;;;5.20;99.90;;;;;;5006197;28;20412;-83
2021/10/15 03:11:20;;;;;;;6.37;2.07;;;5.30;99.90;;;;;;5006759;28;20128;-82
2021/10/15 03:13:46;;;;;;;6.13;2.43;;;5.70;99.90;;;;;;4996564;28;20033;-82
2021/10/15 03:16:12;;;;;;;5.30;2.00;;;5.20;99.90;;;;;;5005552;28;20042;-83
2021/10/15 03:18:37;;;;;;;6.60;2.47;;;5.20;99.90;;;;;;4996782;28;20030;-82
2021/10/15 03:21:03;;;;;;;5.60;2.60;;;5.30;99.90;;;;;;5004566;28;20029;-82
2021/10/15 03:23:29;;;;;;;5.57;2.17;;;5.30;99.90;;;;;;5008809;28;20025;-82
2021/10/15 03:25:55;;;;;;;4.40;1.83;;;5.20;99.90;;;;;;5011285;28;20486;-82
2021/10/15 03:28:21;;;;;;;5.40;2.20;;;5.20;99.90;;;;;;5006767;28;20045;-82
2021/10/15 03:30:47;;;;;;;5.80;2.13;;;5.20;99.90;;;;;;5005229;28;20488;-82
2021/10/15 03:33:12;;;;;;;5.80;2.43;;;5.20;99.90;;;;;;5011132;28;20026;-82
2021/10/15 03:35:38;;;;;;;5.43;2.43;;;5.20;99.90;;;;;;5006473;28;20028;-82
2021/10/15 03:38:04;;;;;;;4.80;2.10;;;5.20;99.90;;;;;;5009137;28;20068;-82
2021/10/15 03:40:30;;;;;;;4.30;1.60;;;5.10;99.90;;;;;;5003466;28;20033;-82
2021/10/15 03:42:56;;;;;;;4.23;2.40;;;5.20;99.90;;;;;;5002469;28;20121;-82
2021/10/15 03:45:21;;;;;;;5.20;2.20;;;5.10;99.90;;;;;;5008273;28;20153;-82
2021/10/15 03:47:47;;;;;;;4.13;2.00;;;5.10;99.90;;;;;;5011136;28;20078;-82
2021/10/15 03:50:14;;;;;;;4.23;1.93;;;5.00;99.90;;;;;;5000950;28;20026;-82
2021/10/15 03:52:39;;;;;;;4.80;1.93;;;5.00;99.90;;;;;;5010231;28;20034;-82
2021/10/15 03:55:07;;;;;;;4.87;2.10;;;5.00;99.90;;;;;;5010029;28;20083;-82
2021/10/15 03:57:34;;;;;;;4.27;2.00;;;5.00;99.90;;;;;;5004675;28;20126;-82
2021/10/15 04:00:00;;;;;;;4.17;1.97;;;4.90;99.90;;;;;;5005785;28;20029;-82
2021/10/15 04:02:25;;;;;;;4.40;1.90;;;5.00;99.90;;;;;;5012211;28;20026;-82
2021/10/15 04:04:51;;;;;;;4.87;2.40;;;4.90;99.90;;;;;;5005304;28;20498;-82
2021/10/15 04:07:17;;;;;;;5.67;2.60;;;4.90;99.90;;;;;;5012692;28;20026;-82
2021/10/15 04:09:42;;;;;;;3.90;2.07;;;4.90;99.90;;;;;;5007525;28;20039;-82
2021/10/15 04:12:08;;;;;;;5.17;1.97;;;4.90;99.90;;;;;;5007878;28;20072;-82
2021/10/15 04:14:33;;;;;;;4.03;2.10;;;4.90;99.90;;;;;;4994066;28;20025;-82
2021/10/15 04:16:59;;;;;;;5.27;2.50;;;4.90;99.90;;;;;;5003050;28;20030;-82
2021/10/15 04:19:25;;;;;;;4.97;2.30;;;4.90;99.90;;;;;;5006834;28;20100;-81
2021/10/15 04:21:50;;;;;;;5.63;2.20;;;4.80;99.90;;;;;;5004434;28;20033;-82
2021/10/15 04:24:16;;;;;;;6.37;2.30;;;4.80;99.90;;;;;;5007860;28;20109;-81
2021/10/15 04:26:42;;;;;;;4.40;2.37;;;4.80;99.90;;;;;;5007252;28;20057;-82
2021/10/15 04:29:08;;;;;;;4.27;1.80;;;4.80;99.90;;;;;;5010294;28;20037;-82
2021/10/15 04:31:33;;;;;;;5.00;2.43;;;4.90;99.90;;;;;;5004381;28;20049;-82
2021/10/15 04:33:59;;;;;;;4.70;1.80;;;4.90;99.90;;;;;;5007902;28;20089;-82
2021/10/15 04:36:24;;;;;;;4.27;1.70;;;5.00;99.90;;;;;;5010456;28;20057;-82
2021/10/15 04:38:50;;;;;;;5.93;2.20;;;5.00;99.90;;;;;;5006097;28;20030;-82
2021/10/15 04:41:16;;;;;;;4.50;2.00;;;5.00;99.90;;;;;;5008700;28;20030;-82
2021/10/15 04:43:42;;;;;;;5.30;1.83;;;5.00;99.90;;;;;;5007591;28;20026;-82
2021/10/15 04:46:07;;;;;;;4.63;2.10;;;5.00;99.90;;;;;;5006705;28;20033;-82
2021/10/15 04:48:34;;;;;;;4.77;2.07;;;5.00;99.90;;;;;;5001533;28;20030;-81
2021/10/15 04:51:00;;;;;;;4.27;1.90;;;5.00;99.90;;;;;;5001707;28;20030;-82
2021/10/15 04:53:25;;;;;;;5.27;2.20;;;5.00;99.90;;;;;;5006616;28;20088;-82
2021/10/15 04:55:51;;;;;;;4.13;2.00;;;5.00;99.90;;;;;;5007197;28;20080;-81
2021/10/15 04:58:16;;;;;;;4.13;2.10;;;5.00;99.90;;;;;;5009241;28;20482;-82
2021/10/15 05:00:42;;;;;;;4.57;1.90;;;5.00;99.90;;;;;;4991009;28;20395;-82
2021/10/15 05:03:08;;;;;;;3.90;2.20;;;5.00;99.90;;;;;;5003998;28;20109;-82
2021/10/15 05:05:34;;;;;;;4.73;2.27;;;4.90;99.90;;;;;;5011367;28;20107;-82
2021/10/15 05:08:00;;;;;;;5.90;2.30;;;4.90;99.90;;;;;;5012695;28;20094;-82
2021/10/15 05:10:28;;;;;;;4.13;2.00;;;4.80;99.90;;;;;;5007097;28;20026;-82
2021/10/15 05:12:54;;;;;;;4.10;1.97;;;4.80;99.90;;;;;;5014233;28;20482;-82
2021/10/15 05:15:20;;;;;;;4.27;2.10;;;4.80;99.90;;;;;;5010916;28;20041;-82
2021/10/15 05:17:47;;;;;;;4.57;2.17;;;4.80;99.90;;;;;;5010076;28;20029;-82
2021/10/15 05:20:15;;;;;;;11.80;2.50;;;4.70;99.90;;;;;;5007471;28;20029;-82
2021/10/15 05:22:45;;;;;;;4.57;2.23;;;4.70;99.90;;;;;;5011692;28;20026;-82
2021/10/15 05:25:12;;;;;;;5.00;2.20;;;4.70;99.90;;;;;;5013252;28;20100;-82
2021/10/15 05:27:38;;;;;;;4.60;1.80;;;4.70;99.90;;;;;;4998145;28;20030;-81
2021/10/15 05:30:05;;;;;;;5.60;2.37;;;4.70;99.90;;;;;;5010108;28;20033;-82
2021/10/15 05:32:31;;;;;;;4.03;2.10;;;4.70;99.90;;;;;;5013446;28;20095;-82
2021/10/15 05:34:56;;;;;;;5.67;2.40;;;4.70;99.90;;;;;;5010682;28;20576;-82
2021/10/15 05:37:22;;;;;;;5.20;2.20;;;4.70;99.90;;;;;;5001410;28;20034;-81
2021/10/15 05:39:48;;;;;;;4.20;2.10;;;4.70;99.90;;;;;;5014150;28;20120;-81
2021/10/15 05:42:13;;;;;;;5.37;2.23;;;4.70;99.90;;;;;;5014197;28;20056;-81
2021/10/15 05:44:39;;;;;;;4.53;2.10;;;4.80;99.90;;;;;;5012850;28;20034;-81
2021/10/15 05:47:05;;;;;;;4.70;2.20;;;4.80;99.90;;;;;;5010135;28;20056;-81
2021/10/15 05:49:32;;;;;;;6.37;2.53;;;4.90;99.90;;;;;;5011610;28;20109;-81
2021/10/15 05:52:10;;;;;;;4.10;1.97;;;4.90;99.90;;;;;;5013414;28;20105;-80
2021/10/15 05:57:18;;;;;;;4.87;2.20;;;5.00;99.90;;;;;;5036122;28;20482;-82
2021/10/15 05:59:44;;;;;;;7.47;2.23;;;5.00;99.90;;;;;;5038225;28;20147;-82
2021/10/15 06:02:09;;;;;;;5.57;2.03;;;5.10;99.90;;;;;;5038587;28;20041;-83
2021/10/15 06:15:28;;;;;;;5.97;2.10;;;5.60;99.90;;;;;;5035269;28;20041;-82
2021/10/15 06:17:54;;;;;;;5.90;2.07;;;5.60;99.90;;;;;;5030288;28;20060;-82
2021/10/15 06:20:20;;;;;;;4.77;2.03;;;5.60;99.90;;;;;;5016602;28;20096;-82
2021/10/15 06:22:46;;;;;;;4.63;1.90;;;5.60;99.90;;;;;;5031446;28;20529;-81
2021/10/15 06:25:11;;;;;;;6.30;2.77;;;5.60;99.90;;;;;;5035346;28;20048;-81
2021/10/15 06:27:37;;;;;;;4.80;2.00;;;5.60;99.90;;;;;;5036787;28;20029;-81
2021/10/15 06:30:04;;;;;;;5.90;1.90;;;5.60;99.90;;;;;;5031721;28;20497;-82
2021/10/15 06:32:30;;;;;;;4.60;1.93;;;5.70;99.90;;;;;;5033615;28;20021;-82
2021/10/15 06:34:56;;;;;;;5.27;1.83;;;5.70;99.90;;;;;;5035562;28;20030;-82
2021/10/15 06:37:21;;;;;;;4.73;1.90;;;5.70;99.90;;;;;;5035392;28;20198;-81
2021/10/15 06:39:47;;;;;;;5.17;2.33;;;5.80;99.90;;;;;;5035671;28;20060;-82
2021/10/15 06:42:13;;;;;;;4.87;2.40;;;5.80;99.90;;;;;;5035556;28;20059;-82
2021/10/15 06:44:41;;;;;;;5.93;1.83;;;5.90;99.90;;;;;;5043437;28;20127;-82
2021/10/15 06:47:07;;;;;;;4.57;1.90;;;5.90;99.90;;;;;;5054145;28;20087;-81
2021/10/15 06:49:32;;;;;;;5.40;1.80;;;6.00;99.90;;;;;;5059684;28;20473;-82
2021/10/15 06:51:58;;;;;;;4.17;1.93;;;6.00;99.90;;;;;;5044153;28;20037;-83
2021/10/15 06:54:24;;;;;;;5.10;2.57;;;6.10;99.90;;;;;;5043649;28;20048;-83
2021/10/15 06:56:49;;;;;;;5.87;2.20;;;6.10;99.90;;;;;;5047377;28;20021;-84
2021/10/15 06:59:15;;;;;;;5.67;2.87;;;6.10;99.90;;;;;;5042057;28;20045;-84
2021/10/15 07:01:40;;;;;;;4.50;2.03;;;6.10;99.90;;;;;;5039506;28;20030;-84
2021/10/15 07:04:06;;;;;;;4.60;1.97;;;6.10;99.90;;;;;;5044143;28;20423;-83
2021/10/15 07:06:32;;;;;;;5.60;2.07;;;6.20;99.90;;;;;;5041093;28;20029;-83
2021/10/15 07:08:58;;;;;;;4.43;1.90;;;6.30;99.90;;;;;;5052013;28;20496;-83
2021/10/15 07:11:23;;;;;;;5.17;1.90;;;6.30;99.90;;;;;;5045102;28;20495;-82
2021/10/15 07:13:49;;;;;;;4.03;2.07;;;6.40;99.90;;;;;;5049001;28;20491;-84
2021/10/15 07:16:15;;;;;;;5.40;2.10;;;6.40;99.90;;;;;;5047346;28;20021;-83
2021/10/15 07:18:42;;;;;;;5.33;2.10;;;6.40;99.90;;;;;;5064514;28;20021;-82
2021/10/15 07:21:08;;;;;;;4.60;1.97;;;6.50;99.90;;;;;;5033541;28;20121;-84
2021/10/15 07:23:34;;;;;;;5.23;2.43;;;6.60;99.90;;;;;;5025140;28;20174;-84
2021/10/15 07:26:01;;;;;;;7.20;2.73;;;6.70;99.90;;;;;;5049148;28;20029;-85
2021/10/15 07:28:27;;;;;;;5.10;2.37;;;6.80;99.90;;;;;;5045219;28;20029;-84
2021/10/15 07:30:54;;;;;;;4.40;2.17;;;6.90;99.90;;;;;;5044995;28;20088;-84
2021/10/15 07:33:20;;;;;;;4.37;1.93;;;7.00;99.90;;;;;;5046374;28;20104;-84
2021/10/15 07:35:45;;;;;;;6.13;2.23;;;7.00;99.90;;;;;;5047053;28;20029;-84
2021/10/15 07:38:11;;;;;;;3.93;2.00;;;7.10;99.90;;;;;;5035012;28;20091;-83
2021/10/15 07:40:36;;;;;;;5.70;2.30;;;7.20;99.90;;;;;;5026963;28;20609;-82
2021/10/15 07:43:02;;;;;;;4.97;2.03;;;7.30;99.90;;;;;;5023147;28;20049;-82
2021/10/15 07:45:28;;;;;;;4.80;2.10;;;7.40;99.90;;;;;;5024343;28;20095;-85
2021/10/15 07:47:55;;;;;;;7.10;2.20;;;7.60;99.90;;;;;;5043258;28;20405;-83
2021/10/15 07:50:21;;;;;;;7.60;2.30;;;7.70;99.90;;;;;;5042987;28;20122;-83
2021/10/15 07:52:47;;;;;;;7.23;2.60;;;7.80;99.90;;;;;;5043783;28;20064;-83
2021/10/15 07:55:13;;;;;;;5.47;2.27;;;7.80;99.90;;;;;;5031354;28;20034;-83
2021/10/15 07:57:38;;;;;;;4.53;1.97;;;8.00;99.90;;;;;;5023299;28;20045;-83
2021/10/15 08:00:07;;;;;;;9.43;2.50;;;8.00;99.90;;;;;;5021585;28;20112;-82
2021/10/15 08:02:33;;;;;;;5.33;2.17;;;8.10;99.90;;;;;;5026648;28;20022;-84
2021/10/15 08:04:59;;;;;;;5.10;2.70;;;8.10;99.90;;;;;;5041935;28;20033;-84
2021/10/15 08:07:25;;;;;;;4.77;2.40;;;8.30;99.90;;;;;;5042387;28;20034;-84
2021/10/15 08:09:51;;;;;;;7.50;2.03;;;8.10;99.90;;;;;;5038889;28;20026;-84
2021/10/15 08:12:16;;;;;;;5.40;2.42;;;8.10;99.90;;;;;;5025549;28;20057;-84
2021/10/15 08:14:42;;;;;;;4.40;2.23;;;8.10;99.90;;;;;;5041582;28;20044;-84
2021/10/15 08:17:08;;;;;;;5.35;2.63;;;8.00;99.90;;;;;;5039710;28;20022;-84
2021/10/15 08:19:34;;;;;;;5.67;2.30;;;8.00;99.90;;;;;;5037436;28;20025;-84
2021/10/15 08:21:59;;;;;;;5.07;2.23;;;8.10;99.90;;;;;;5034751;28;20029;-84
2021/10/15 08:24:25;;;;;;;5.13;2.53;;;7.90;99.90;;;;;;5020544;28;20062;-85
2021/10/15 08:26:51;;;;;;;5.00;2.53;;;7.90;99.90;;;;;;5020196;28;20026;-84
2021/10/15 08:29:18;;;;;;;4.25;1.90;;;7.90;99.90;;;;;;5028427;28;20125;-84
2021/10/15 08:31:44;;;;;;;4.80;2.08;;;7.90;99.90;;;;;;5039249;28;20437;-84
2021/10/15 08:34:10;;;;;;;5.17;2.23;;;8.00;99.90;;;;;;5039567;28;20095;-84
2021/10/15 08:36:39;;;;;;;6.53;2.38;;;8.10;99.90;;;;;;5039791;28;20021;-85
2021/10/15 08:39:06;;;;;;;4.97;2.30;;;8.30;99.90;;;;;;5054578;28;20052;-84
2021/10/15 08:41:32;;;;;;;8.27;2.40;;;8.40;99.90;;;;;;5028585;28;20099;-84
2021/10/15 08:43:58;;;;;;;7.20;2.63;;;8.50;99.90;;;;;;5055761;28;20089;-84
2021/10/15 08:46:24;;;;;;;6.90;2.28;;;8.60;99.90;;;;;;5040326;28;20052;-83
2021/10/15 08:48:51;;;;;;;3.83;1.95;;;8.70;99.90;;;;;;5039733;28;20529;-84
2021/10/15 08:51:19;;;;;;;5.65;1.98;;;8.70;99.90;;;;;;5038589;28;20021;-83
2021/10/15 08:53:46;;;;;;;4.72;2.25;;;8.80;99.90;;;;;;5039803;28;20409;-84
2021/10/15 08:56:12;;;;;;;3.92;2.10;;;8.90;99.90;;;;;;5037789;28;20026;-83
2021/10/15 08:58:42;;;;;;;4.45;2.15;;;9.00;99.90;;;;;;5044626;28;20144;-82
2021/10/15 09:01:08;;;;;;;4.43;1.73;;;9.10;99.90;;;;;;5048954;28;20026;-83
2021/10/15 09:03:34;;;;;;;5.03;2.58;;;9.40;99.90;;;;;;5044385;28;20034;-83
2021/10/15 09:06:08;;;;;;;3.60;1.77;;;9.20;99.90;;;;;;5036652;28;20029;-83
2021/10/15 09:08:54;;;;;;;5.35;2.50;;;9.30;99.90;;;;;;5028718;28;20041;-83
2021/10/15 09:11:38;;;;;;;5.05;2.25;;;9.60;99.90;;;;;;5014648;28;20120;-83
2021/10/15 09:14:18;;;;;;;5.78;2.42;;;9.60;99.90;;;;;;5033539;28;20482;-84
2021/10/15 09:17:05;;;;;;;5.55;2.30;;;9.80;99.90;;;;;;5020529;28;20406;-83
2021/10/15 09:19:36;;;;;;;4.20;2.38;;;9.90;99.90;;;;;;5024263;28;20022;-83
2021/10/15 09:22:06;;;;;;;5.20;2.10;;;10.00;99.90;;;;;;5038120;28;20106;-84
2021/10/15 09:24:36;;;;;;;6.18;2.10;;;10.20;99.90;;;;;;5032350;28;20072;-83
2021/10/15 09:27:20;;;;;;;4.00;1.92;;;10.30;99.90;;;;;;5030927;28;20026;-83
2021/10/15 09:30:09;;;;;;;3.65;1.90;;;10.40;99.90;;;;;;5024601;28;20044;-83
2021/10/15 09:32:36;;;;;;;4.18;1.73;;;10.60;99.90;;;;;;5011504;28;20026;-83
2021/10/15 09:35:03;;;;;;;4.25;1.73;;;10.70;99.90;;;;;;5011464;28;20034;-83
2021/10/15 09:37:32;;;;;;;4.80;1.90;;;10.80;99.90;;;;;;5029188;28;20034;-84
2021/10/15 09:40:08;;;;;;;3.65;1.63;;;10.90;99.90;;;;;;5030087;28;20025;-84
2021/10/15 09:42:36;;;;;;;3.72;1.92;;;10.90;99.90;;;;;;5019573;28;20033;-84
2021/10/15 09:45:16;;;;;;;5.15;2.50;;;11.00;99.90;;;;;;5031283;28;20030;-84
2021/10/15 09:48:02;;;;;;;5.50;2.45;;;11.10;99.90;;;;;;5033746;28;20033;-83
2021/10/15 09:50:30;;;;;;;4.97;2.05;;;11.30;99.90;;;;;;5034579;28;20036;-83
2021/10/15 09:52:58;;;;;;;4.47;2.28;;;11.40;99.90;;;;;;5034989;28;20405;-83
2021/10/15 09:55:39;;;;;;;5.55;2.13;;;11.50;99.90;;;;;;5031323;28;20149;-84
2021/10/15 09:58:19;;;;;;;6.95;2.10;;;11.50;99.90;;;;;;5035091;28;20044;-85
2021/10/15 10:00:46;;;;;;;4.25;1.95;;;11.70;99.90;;;;;;5033392;28;20025;-84
2021/10/15 10:03:13;;;;;;;4.82;1.98;;;11.70;99.90;;;;;;5031463;28;20449;-84
2021/10/15 10:05:38;;;;;;;4.10;2.00;;;11.90;99.90;;;;;;5019169;28;20037;-84
2021/10/15 10:08:05;;;;;;;3.72;1.85;;;12.00;99.90;;;;;;5036424;28;20386;-84
2021/10/15 10:10:35;;;;;;;3.88;1.63;;;12.20;99.90;;;;;;5039086;28;20036;-84
2021/10/15 10:13:02;;;;;;;4.47;1.70;;;12.30;99.90;;;;;;5030225;28;20047;-85
2021/10/15 10:15:30;;;;;;;4.57;1.85;;;12.50;99.90;;;;;;5040253;28;20026;-84
2021/10/15 10:18:29;;;;;;;3.80;1.50;;;12.50;99.90;;;;;;5037693;28;20033;-84
2021/10/15 10:21:12;;;;;;;3.85;1.40;;;12.60;99.90;;;;;;5027399;28;20101;-84
2021/10/15 10:23:44;;;;;;;5.47;1.48;;;12.60;99.90;;;;;;5035048;28;20386;-84
2021/10/15 10:26:12;;;;;;;4.40;1.50;;;12.60;99.90;;;;;;5039240;28;20096;-84
2021/10/15 10:28:39;;;;;;;3.38;1.20;;;12.60;99.90;;;;;;5041717;28;20053;-84
2021/10/15 10:31:21;;;;;;;2.42;1.13;;;12.70;99.90;;;;;;5040517;28;20037;-84
2021/10/15 10:33:58;;;;;;;3.05;1.10;;;12.90;99.90;;;;;;5042863;28;20040;-84
2021/10/15 10:36:25;;;;;;;2.13;1.00;;;12.90;99.90;;;;;;5040180;28;20103;-83
2021/10/15 10:38:51;;;;;;;2.83;1.05;;;13.00;99.90;;;;;;5041909;28;20474;-83
2021/10/15 10:41:28;;;;;;;2.78;1.25;;;13.10;99.90;;;;;;5041361;28;20113;-84
2021/10/15 10:43:54;;;;;;;4.10;1.33;;;13.20;99.90;;;;;;5032294;28;20025;-82
2021/10/15 10:46:19;;;;;;;3.17;1.38;;;13.20;99.90;;;;;;5036479;28;20116;-84
2021/10/15 10:48:51;;;;;;;2.90;1.08;;;13.30;99.90;;;;;;5027205;28;20026;-83
2021/10/15 10:51:17;;;;;;;3.05;1.10;;;13.30;99.90;;;;;;5041230;28;20026;-83
2021/10/15 10:54:04;;;;;;;2.42;1.08;;;13.40;99.90;;;;;;5040643;28;20021;-83
2021/10/15 10:56:38;;;;;;;3.33;0.98;;;13.50;99.90;;;;;;5032564;28;20041;-82
2021/10/15 10:59:20;;;;;;;5.47;1.60;;;13.50;99.90;;;;;;5035627;28;20060;-83
2021/10/15 11:01:51;;;;;;;4.80;1.33;;;13.60;99.90;;;;;;5026999;28;20026;-82
2021/10/15 11:04:30;;;;;;;3.42;1.27;;;13.50;99.90;;;;;;5027765;28;20040;-84
2021/10/15 11:07:02;;;;;;;3.35;1.38;;;13.50;99.90;;;;;;5035954;28;20037;-84
2021/10/15 11:09:42;;;;;;;3.95;1.50;;;13.60;99.90;;;;;;5025336;28;20026;-83
2021/10/15 11:12:09;;;;;;;3.67;1.45;;;13.60;99.90;;;;;;5023666;28;20072;-84
2021/10/15 11:14:56;;;;;;;3.58;1.67;;;13.70;99.90;;;;;;5043025;28;20025;-83
2021/10/15 11:17:28;;;;;;;3.33;1.77;;;13.80;99.90;;;;;;5041082;28;20025;-84
2021/10/15 11:20:06;;;;;;;;;;;13.90;99.90;;;;;;5040586;28;20034;-84
2021/10/15 11:22:32;;;;;;;4.45;1.73;;;14.00;99.90;;;;;;5030897;28;19917;-84
2021/10/15 11:24:58;;;;;;;4.68;1.80;;;14.00;99.90;;;;;;5046400;28;20059;-84
2021/10/15 11:27:24;;;;;;;3.90;1.52;;;14.00;99.90;;;;;;5049399;28;20075;-84
2021/10/15 11:29:57;;;;;;;4.07;1.77;;;14.20;99.90;;;;;;5037442;28;20022;-84
2021/10/15 11:32:40;;;;;;;4.13;1.80;;;14.20;99.90;;;;;;5044717;28;20474;-83
2021/10/15 11:35:20;;;;;;;4.25;1.85;;;14.20;99.90;;;;;;5045393;28;20056;-84
2021/10/15 11:37:57;;;;;;;3.85;1.25;;;14.30;99.90;;;;;;5040084;28;20074;-83
2021/10/15 11:40:43;;;;;;;3.92;1.60;;;14.40;99.90;;;;;;5035192;28;20025;-82
2021/10/15 11:43:27;;;;;;;3.28;1.60;;;14.40;99.90;;;;;;5043811;28;20033;-83
2021/10/15 11:46:04;;;;;;;3.30;1.63;;;14.40;99.90;;;;;;5048275;28;20025;-82
2021/10/15 11:48:41;;;;;;;4.20;1.50;;;14.40;99.90;;;;;;5044833;28;20025;-82
2021/10/15 11:51:09;;;;;;;5.40;1.60;;;14.50;99.90;;;;;;5040479;28;20064;-82
2021/10/15 11:53:38;;;;;;;3.42;1.50;;;14.40;99.90;;;;;;5036424;28;20059;-82
2021/10/15 11:56:05;;;;;;;2.80;1.17;;;14.40;99.90;;;;;;5036028;28;20048;-81
2021/10/15 11:58:31;;;;;;;3.22;1.50;;;14.40;99.90;;;;;;5036802;28;20037;-84
2021/10/15 12:01:09;;;;;;;3.00;1.50;;;14.50;99.90;;;;;;5025505;28;20033;-83
2021/10/15 12:03:41;;;;;;;3.70;1.25;;;14.50;99.90;;;;;;5036214;28;20032;-83
2021/10/15 12:06:19;;;;;;;3.55;1.52;;;14.60;99.90;;;;;;5023218;28;20036;-83
2021/10/15 12:08:47;;;;;;;2.72;1.35;;;14.70;99.90;;;;;;5035340;28;20034;-83
2021/10/15 12:11:18;;;;;;;3.53;1.67;;;14.70;99.90;;;;;;5021721;28;20097;-83
2021/10/15 12:13:46;;;;;;;3.47;1.60;;;14.80;99.90;;;;;;5029965;23;20067;-84
2021/10/15 12:16:29;;;;;;;3.15;1.20;;;14.80;99.90;;;;;;5017687;28;20113;-85
2021/10/15 12:19:05;;;;;;;4.07;1.63;;;14.70;99.90;;;;;;4989577;28;20073;-84
2021/10/15 12:21:40;;;;;;;2.20;1.05;;;14.70;99.90;;;;;;4978113;28;20069;-84
2021/10/15 12:24:09;;;;;;;3.78;1.42;;;14.70;99.90;;;;;;5007566;28;20029;-84
2021/10/15 12:26:36;;;;;;;2.53;0.90;;;14.80;99.90;;;;;;5007862;28;20096;-84
2021/10/15 12:29:02;;;;;;;2.95;1.23;;;15.00;99.90;;;;;;5009550;28;20033;-85
2021/10/15 12:31:35;;;;;;;3.00;1.40;;;15.20;99.90;;;;;;5009129;28;20042;-83
2021/10/15 12:34:13;;;;;;;2.78;1.05;;;15.20;99.90;;;;;;4990205;28;20033;-81
2021/10/15 12:36:41;;;;;;;1.67;0.88;;;15.40;99.90;;;;;;4993796;28;20397;-82
2021/10/15 12:39:25;;;;;;;4.22;1.65;;;15.60;99.90;;;;;;4996792;28;20030;-82
2021/10/15 12:41:54;;;;;;;3.33;1.00;;;15.50;99.90;;;;;;4993795;28;20022;-82
2021/10/15 12:44:31;;;;;;;3.85;1.20;;;15.50;99.90;;;;;;4987385;28;20056;-82
2021/10/15 12:47:04;;;;;;;3.33;1.17;;;15.40;99.90;;;;;;4973692;28;20026;-84
2021/10/15 12:49:51;;;;;;;2.53;1.05;;;15.30;99.90;;;;;;4981974;28;20097;-82
2021/10/15 12:52:33;;;;;;;1.77;0.88;;;15.30;99.90;;;;;;5003694;28;20052;-82
2021/10/15 12:55:14;;;;;;;3.70;1.08;;;15.20;99.90;;;;;;4991118;28;20030;-82
2021/10/15 12:57:40;;;;;;;2.67;1.15;;;15.20;99.90;;;;;;4990999;28;20161;-82
2021/10/15 13:00:09;;;;;;;2.80;1.15;;;15.10;99.90;;;;;;4987002;28;20499;-82
2021/10/15 13:02:35;;;;;;;2.30;1.17;;;15.00;99.90;;;;;;4989681;28;20033;-82
2021/10/15 13:05:02;;;;;;;3.10;1.27;;;15.00;99.90;;;;;;5010519;28;20109;-83
2021/10/15 13:07:28;;;;;;;3.05;1.27;;;15.00;99.90;;;;;;5008775;28;20038;-82
2021/10/15 13:09:55;;;;;;;3.85;1.42;;;15.00;99.90;;;;;;5002210;28;20426;-83
2021/10/15 13:12:22;;;;;;;4.50;1.10;;;15.00;99.90;;;;;;4989625;28;20033;-82
2021/10/15 13:14:47;;;;;;;2.88;1.00;;;15.10;99.90;;;;;;5007964;28;20597;-84